createdAt,value
2016-12-29T00:00:46.879Z,9.83
2016-12-29T00:01:46.892Z,9.73
2016-12-29T00:02:46.910Z,9.69
2016-12-29T00:03:46.923Z,9.62
2016-12-29T00:04:46.940Z,9.76
2016-12-29T00:05:46.954Z,9.72
2016-12-29T00:06:46.971Z,9.61
2016-12-29T00:07:46.991Z,9.76
2016-12-29T00:08:47.011Z,9.66
2016-12-29T00:09:47.013Z,9.77
2016-12-29T00:10:47.041Z,9.79
2016-12-29T00:11:47.161Z,9.64
2016-12-29T00:12:47.064Z,9.76
2016-12-29T00:13:47.076Z,9.77
2016-12-29T00:14:47.089Z,9.76
2016-12-29T00:15:47.107Z,9.62
2016-12-29T00:16:47.118Z,9.65
2016-12-29T00:17:47.139Z,9.76
2016-12-29T00:18:47.337Z,9.74
2016-12-29T00:19:47.317Z,9.64
2016-12-29T00:20:47.198Z,9.74
2016-12-29T00:21:47.193Z,9.79
2016-12-29T00:22:47.221Z,9.74
2016-12-29T00:23:47.225Z,9.65
2016-12-29T00:24:47.247Z,9.74
2016-12-29T00:25:47.254Z,9.68
2016-12-29T00:26:47.275Z,9.62
2016-12-29T00:27:47.293Z,9.64
2016-12-29T00:28:47.303Z,9.65
2016-12-29T00:29:47.429Z,9.8
2016-12-29T00:30:47.420Z,9.74
2016-12-29T00:31:47.367Z,9.76
2016-12-29T00:32:47.364Z,9.64
2016-12-29T00:33:47.381Z,9.73
2016-12-29T00:34:47.512Z,9.72
2016-12-29T00:35:47.413Z,9.68
2016-12-29T00:36:47.424Z,9.66
2016-12-29T00:37:47.432Z,9.66
2016-12-29T00:38:47.454Z,9.73
2016-12-29T00:39:47.465Z,9.73
2016-12-29T00:40:47.491Z,9.69
2016-12-29T00:41:47.491Z,9.74
2016-12-29T00:42:47.514Z,9.66
2016-12-29T00:43:47.526Z,9.69
2016-12-29T00:44:47.547Z,9.73
2016-12-29T00:45:47.558Z,9.64
2016-12-29T00:46:47.568Z,9.66
2016-12-29T00:47:47.587Z,9.68
2016-12-29T00:48:47.599Z,9.68
2016-12-29T00:49:47.621Z,9.66
2016-12-29T00:50:47.634Z,9.68
2016-12-29T00:51:47.644Z,9.66
2016-12-29T00:52:47.662Z,9.66
2016-12-29T00:53:47.678Z,9.66
2016-12-29T00:54:47.691Z,9.74
2016-12-29T00:55:47.711Z,9.66
2016-12-29T00:56:47.728Z,9.72
2016-12-29T00:57:47.736Z,9.73
2016-12-29T00:58:47.803Z,9.65
2016-12-29T00:59:47.773Z,9.66
2016-12-29T01:00:47.789Z,9.65
2016-12-29T01:01:47.800Z,9.66
2016-12-29T01:02:47.814Z,9.65
2016-12-29T01:03:47.831Z,9.73
2016-12-29T01:04:47.837Z,9.69
2016-12-29T01:05:47.861Z,9.73
2016-12-29T01:06:47.883Z,9.72
2016-12-29T01:07:47.893Z,9.65
2016-12-29T01:08:47.911Z,9.69
2016-12-29T01:09:47.921Z,9.68
2016-12-29T01:10:47.973Z,9.69
2016-12-29T01:11:48.071Z,9.72
2016-12-29T01:12:47.962Z,9.72
2016-12-29T01:13:47.991Z,9.69
2016-12-29T01:14:48.005Z,9.68
2016-12-29T01:15:48.010Z,9.72
2016-12-29T01:16:48.428Z,9.69
2016-12-29T01:17:48.047Z,9.66
2016-12-29T01:18:48.058Z,9.66
2016-12-29T01:19:48.077Z,9.62
2016-12-29T01:20:48.085Z,9.69
2016-12-29T01:21:48.100Z,9.69
2016-12-29T01:22:48.120Z,9.72
2016-12-29T01:23:48.130Z,9.66
2016-12-29T01:24:48.144Z,9.64
2016-12-29T01:25:48.164Z,9.68
2016-12-29T01:26:48.191Z,9.66
2016-12-29T01:27:48.197Z,9.69
2016-12-29T01:28:48.209Z,9.69
2016-12-29T01:29:48.221Z,9.66
2016-12-29T01:30:48.241Z,9.62
2016-12-29T01:31:48.251Z,9.72
2016-12-29T01:32:48.269Z,9.65
2016-12-29T01:33:48.278Z,9.69
2016-12-29T01:34:48.299Z,9.66
2016-12-29T01:35:48.318Z,9.68
2016-12-29T01:36:48.327Z,9.66
2016-12-29T01:37:48.342Z,9.72
2016-12-29T01:38:48.357Z,9.68
2016-12-29T01:39:48.376Z,9.65
2016-12-29T01:40:48.386Z,9.66
2016-12-29T01:41:48.503Z,9.74
2016-12-29T01:42:48.423Z,9.68
2016-12-29T01:43:48.433Z,9.68
2016-12-29T01:44:48.443Z,9.68
2016-12-29T01:45:48.464Z,9.64
2016-12-29T01:46:48.483Z,9.66
2016-12-29T01:47:48.499Z,9.69
2016-12-29T01:48:48.686Z,9.61
2016-12-29T01:49:48.658Z,9.62
2016-12-29T01:50:48.702Z,9.66
2016-12-29T01:51:48.653Z,9.66
2016-12-29T01:52:48.569Z,9.68
2016-12-29T01:53:48.586Z,9.62
2016-12-29T01:54:48.725Z,9.64
2016-12-29T01:55:48.706Z,9.68
2016-12-29T01:56:48.692Z,9.65
2016-12-29T01:57:48.651Z,9.66
2016-12-29T01:58:48.776Z,9.68
2016-12-29T01:59:48.671Z,9.72
2016-12-29T02:00:48.810Z,9.69
2016-12-29T02:01:48.702Z,9.72
2016-12-29T02:02:48.720Z,9.64
2016-12-29T02:03:48.734Z,9.69
2016-12-29T02:04:48.749Z,9.68
2016-12-29T02:05:48.904Z,9.65
2016-12-29T02:06:48.784Z,9.58
2016-12-29T02:07:48.799Z,9.72
2016-12-29T02:08:48.982Z,9.64
2016-12-29T02:09:48.905Z,9.69
2016-12-29T02:10:48.845Z,9.72
2016-12-29T02:11:48.856Z,9.66
2016-12-29T02:12:48.869Z,9.64
2016-12-29T02:13:49.042Z,9.66
2016-12-29T02:14:48.899Z,9.68
2016-12-29T02:15:48.947Z,9.68
2016-12-29T02:16:48.970Z,9.69
2016-12-29T02:17:49.056Z,9.64
2016-12-29T02:18:49.095Z,9.69
2016-12-29T02:19:49.144Z,9.73
2016-12-29T02:20:49.177Z,9.66
2016-12-29T02:21:49.007Z,9.72
2016-12-29T02:22:49.023Z,9.69
2016-12-29T02:23:49.037Z,9.69
2016-12-29T02:24:49.444Z,9.73
2016-12-29T02:25:49.077Z,9.66
2016-12-29T02:26:49.087Z,9.74
2016-12-29T02:27:49.097Z,9.66
2016-12-29T02:28:49.115Z,9.62
2016-12-29T02:29:49.123Z,9.73
2016-12-29T02:30:49.138Z,9.66
2016-12-29T02:31:49.156Z,9.72
2016-12-29T02:32:49.172Z,9.73
2016-12-29T02:33:49.190Z,9.65
2016-12-29T02:34:49.202Z,9.68
2016-12-29T02:35:49.216Z,9.66
2016-12-29T02:36:49.235Z,9.73
2016-12-29T02:37:49.245Z,9.72
2016-12-29T02:38:49.376Z,9.69
2016-12-29T02:39:49.283Z,9.68
2016-12-29T02:40:49.405Z,9.66
2016-12-29T02:41:49.307Z,9.66
2016-12-29T02:42:49.320Z,9.64
2016-12-29T02:43:49.335Z,9.69
2016-12-29T02:44:49.354Z,9.66
2016-12-29T02:45:49.366Z,9.72
2016-12-29T02:46:49.420Z,9.68
2016-12-29T02:47:49.474Z,9.72
2016-12-29T02:48:49.423Z,9.65
2016-12-29T02:49:49.452Z,9.69
2016-12-29T02:50:49.440Z,9.64
2016-12-29T02:51:49.463Z,9.73
2016-12-29T02:52:49.477Z,9.65
2016-12-29T02:53:49.490Z,9.62
2016-12-29T02:54:49.500Z,9.61
2016-12-29T02:55:49.517Z,9.73
2016-12-29T02:56:49.534Z,9.66
2016-12-29T02:57:49.547Z,9.66
2016-12-29T02:58:49.638Z,9.73
2016-12-29T02:59:49.575Z,9.69
2016-12-29T03:00:49.599Z,9.66
2016-12-29T03:01:49.608Z,9.69
2016-12-29T03:02:49.620Z,9.68
2016-12-29T03:03:49.637Z,9.69
2016-12-29T03:04:49.770Z,9.65
2016-12-29T03:05:49.760Z,9.68
2016-12-29T03:06:49.805Z,9.69
2016-12-29T03:07:49.697Z,9.66
2016-12-29T03:08:49.717Z,9.68
2016-12-29T03:09:49.732Z,9.68
2016-12-29T03:10:49.744Z,9.65
2016-12-29T03:11:49.763Z,9.72
2016-12-29T03:12:49.776Z,9.72
2016-12-29T03:13:49.789Z,9.62
2016-12-29T03:14:49.808Z,9.66
2016-12-29T03:15:49.817Z,9.68
2016-12-29T03:16:49.832Z,9.61
2016-12-29T03:17:49.850Z,9.66
2016-12-29T03:18:49.863Z,9.66
2016-12-29T03:19:49.883Z,9.61
2016-12-29T03:20:49.895Z,9.61
2016-12-29T03:21:49.915Z,9.66
2016-12-29T03:22:49.924Z,9.64
2016-12-29T03:23:49.940Z,9.59
2016-12-29T03:24:49.953Z,9.55
2016-12-29T03:25:49.968Z,9.58
2016-12-29T03:26:50.028Z,9.56
2016-12-29T03:27:49.999Z,9.58
2016-12-29T03:28:50.015Z,9.59
2016-12-29T03:29:50.029Z,9.55
2016-12-29T03:30:50.039Z,9.61
2016-12-29T03:31:50.060Z,9.61
2016-12-29T03:32:50.077Z,9.58
2016-12-29T03:33:50.085Z,9.56
2016-12-29T03:34:50.107Z,9.58
2016-12-29T03:35:50.234Z,9.59
2016-12-29T03:36:50.139Z,9.58
2016-12-29T03:37:50.350Z,9.55
2016-12-29T03:38:50.163Z,9.55
2016-12-29T03:39:50.257Z,9.64
2016-12-29T03:40:50.196Z,9.59
2016-12-29T03:41:50.210Z,9.59
2016-12-29T03:42:50.227Z,9.64
2016-12-29T03:43:50.347Z,9.59
2016-12-29T03:44:50.348Z,9.61
2016-12-29T03:45:50.270Z,9.62
2016-12-29T03:46:50.399Z,9.51
2016-12-29T03:47:50.388Z,9.58
2016-12-29T03:48:50.431Z,9.56
2016-12-29T03:49:50.537Z,9.54
2016-12-29T03:50:50.344Z,9.58
2016-12-29T03:51:50.361Z,9.59
2016-12-29T03:52:50.379Z,9.58
2016-12-29T03:53:50.392Z,9.55
2016-12-29T03:54:50.411Z,9.55
2016-12-29T03:55:50.418Z,9.54
2016-12-29T03:56:50.834Z,9.56
2016-12-29T03:57:50.542Z,9.61
2016-12-29T03:58:50.474Z,9.58
2016-12-29T03:59:50.478Z,9.59
2016-12-29T04:00:50.497Z,9.58
2016-12-29T04:01:50.516Z,9.56
2016-12-29T04:02:50.531Z,9.59
2016-12-29T04:03:50.537Z,9.61
2016-12-29T04:04:50.560Z,9.51
2016-12-29T04:05:50.588Z,9.64
2016-12-29T04:06:50.583Z,9.59
2016-12-29T04:07:50.597Z,9.56
2016-12-29T04:08:50.622Z,9.54
2016-12-29T04:09:50.628Z,9.62
2016-12-29T04:10:50.642Z,9.54
2016-12-29T04:11:50.661Z,9.62
2016-12-29T04:12:50.672Z,9.58
2016-12-29T04:13:50.690Z,9.62
2016-12-29T04:14:50.734Z,9.65
2016-12-29T04:15:50.722Z,9.59
2016-12-29T04:16:50.738Z,9.58
2016-12-29T04:17:50.754Z,9.56
2016-12-29T04:18:50.767Z,9.65
2016-12-29T04:19:50.782Z,9.59
2016-12-29T04:20:50.794Z,9.61
2016-12-29T04:21:50.808Z,9.58
2016-12-29T04:22:50.826Z,9.51
2016-12-29T04:23:50.842Z,9.59
2016-12-29T04:24:50.851Z,9.55
2016-12-29T04:25:50.875Z,9.48
2016-12-29T04:26:50.885Z,9.55
2016-12-29T04:27:51.004Z,9.62
2016-12-29T04:28:50.980Z,9.61
2016-12-29T04:29:50.955Z,9.58
2016-12-29T04:30:50.949Z,9.59
2016-12-29T04:31:50.959Z,9.59
2016-12-29T04:32:50.974Z,9.54
2016-12-29T04:33:50.986Z,9.56
2016-12-29T04:34:51.004Z,9.59
2016-12-29T04:35:51.018Z,9.59
2016-12-29T04:36:51.033Z,9.58
2016-12-29T04:37:51.054Z,9.58
2016-12-29T04:38:51.063Z,9.5
2016-12-29T04:39:51.081Z,9.55
2016-12-29T04:40:51.271Z,9.54
2016-12-29T04:41:51.270Z,9.47
2016-12-29T04:42:51.126Z,9.56
2016-12-29T04:43:51.143Z,9.56
2016-12-29T04:44:51.163Z,9.56
2016-12-29T04:45:51.165Z,9.55
2016-12-29T04:46:51.185Z,9.54
2016-12-29T04:47:51.201Z,9.47
2016-12-29T04:48:51.215Z,9.55
2016-12-29T04:49:51.235Z,9.48
2016-12-29T04:50:51.249Z,9.55
2016-12-29T04:51:51.264Z,9.47
2016-12-29T04:52:51.385Z,9.48
2016-12-29T04:53:51.453Z,9.5
2016-12-29T04:54:51.413Z,9.54
2016-12-29T04:55:51.470Z,9.58
2016-12-29T04:56:51.451Z,9.46
2016-12-29T04:57:51.624Z,9.46
2016-12-29T04:58:51.481Z,9.44
2016-12-29T04:59:51.534Z,9.54
2016-12-29T05:00:51.392Z,9.51
2016-12-29T05:01:51.414Z,9.47
2016-12-29T05:02:51.424Z,9.5
2016-12-29T05:03:51.437Z,9.5
2016-12-29T05:04:51.453Z,9.47
2016-12-29T05:05:51.468Z,9.41
2016-12-29T05:06:51.483Z,9.43
2016-12-29T05:07:51.620Z,9.43
2016-12-29T05:08:51.633Z,9.41
2016-12-29T05:09:51.640Z,9.43
2016-12-29T05:10:51.702Z,9.47
2016-12-29T05:11:51.648Z,9.44
2016-12-29T05:12:51.592Z,9.44
2016-12-29T05:13:51.668Z,9.43
2016-12-29T05:14:51.607Z,9.44
2016-12-29T05:15:51.617Z,9.43
2016-12-29T05:16:51.632Z,9.44
2016-12-29T05:17:51.647Z,9.43
2016-12-29T05:18:51.664Z,9.46
2016-12-29T05:19:51.687Z,9.46
2016-12-29T05:20:51.695Z,9.46
2016-12-29T05:21:51.711Z,9.48
2016-12-29T05:22:51.725Z,9.46
2016-12-29T05:23:51.763Z,9.43
2016-12-29T05:24:51.749Z,9.44
2016-12-29T05:25:51.769Z,9.39
2016-12-29T05:26:51.894Z,9.41
2016-12-29T05:27:51.828Z,9.43
2016-12-29T05:28:51.817Z,9.39
2016-12-29T05:29:51.825Z,9.47
2016-12-29T05:30:51.845Z,9.41
2016-12-29T05:31:51.855Z,9.44
2016-12-29T05:32:51.876Z,9.36
2016-12-29T05:33:51.886Z,9.36
2016-12-29T05:34:51.903Z,9.34
2016-12-29T05:35:51.999Z,9.39
2016-12-29T05:36:51.931Z,9.37
2016-12-29T05:37:51.944Z,9.43
2016-12-29T05:38:51.959Z,9.34
2016-12-29T05:39:51.975Z,9.4
2016-12-29T05:40:51.990Z,9.4
2016-12-29T05:41:52.008Z,9.37
2016-12-29T05:42:52.018Z,9.31
2016-12-29T05:43:52.038Z,9.32
2016-12-29T05:44:52.053Z,9.34
2016-12-29T05:45:52.067Z,9.36
2016-12-29T05:46:52.078Z,9.34
2016-12-29T05:47:52.095Z,9.41
2016-12-29T05:48:52.112Z,9.39
2016-12-29T05:49:52.121Z,9.39
2016-12-29T05:50:52.139Z,9.39
2016-12-29T05:51:52.269Z,9.34
2016-12-29T05:52:52.166Z,9.39
2016-12-29T05:53:52.189Z,9.37
2016-12-29T05:54:52.202Z,9.37
2016-12-29T05:55:52.221Z,9.4
2016-12-29T05:56:52.227Z,9.34
2016-12-29T05:57:52.247Z,9.31
2016-12-29T05:58:52.275Z,9.37
2016-12-29T05:59:52.320Z,9.36
2016-12-29T06:00:52.288Z,9.36
2016-12-29T06:01:52.302Z,9.34
2016-12-29T06:02:52.345Z,9.28
2016-12-29T06:03:52.333Z,9.31
2016-12-29T06:04:52.345Z,9.23
2016-12-29T06:05:52.365Z,9.23
2016-12-29T06:06:52.376Z,9.25
2016-12-29T06:07:52.398Z,9.32
2016-12-29T06:08:52.414Z,9.32
2016-12-29T06:09:52.423Z,9.28
2016-12-29T06:10:52.435Z,9.28
2016-12-29T06:11:52.455Z,9.32
2016-12-29T06:12:52.583Z,9.31
2016-12-29T06:13:52.485Z,9.25
2016-12-29T06:14:52.503Z,9.29
2016-12-29T06:15:52.514Z,9.31
2016-12-29T06:16:52.531Z,9.28
2016-12-29T06:17:52.548Z,9.29
2016-12-29T06:18:52.555Z,9.31
2016-12-29T06:19:52.571Z,9.29
2016-12-29T06:20:52.588Z,9.29
2016-12-29T06:21:52.717Z,9.37
2016-12-29T06:22:52.614Z,9.29
2016-12-29T06:23:52.630Z,9.26
2016-12-29T06:24:52.657Z,9.29
2016-12-29T06:25:52.656Z,9.26
2016-12-29T06:26:52.684Z,9.23
2016-12-29T06:27:52.690Z,9.25
2016-12-29T06:28:52.733Z,9.31
2016-12-29T06:29:52.718Z,9.22
2016-12-29T06:30:52.732Z,9.28
2016-12-29T06:31:52.745Z,9.25
2016-12-29T06:32:52.762Z,9.23
2016-12-29T06:33:52.781Z,9.21
2016-12-29T06:34:52.791Z,9.26
2016-12-29T06:35:52.806Z,9.25
2016-12-29T06:36:52.822Z,9.22
2016-12-29T06:37:52.848Z,9.23
2016-12-29T06:38:52.855Z,9.29
2016-12-29T06:39:52.977Z,9.25
2016-12-29T06:40:52.882Z,9.28
2016-12-29T06:41:53.113Z,9.21
2016-12-29T06:42:52.912Z,9.26
2016-12-29T06:43:52.927Z,9.28
2016-12-29T06:44:52.939Z,9.26
2016-12-29T06:45:52.954Z,9.28
2016-12-29T06:46:52.963Z,9.28
2016-12-29T06:47:53.086Z,9.28
2016-12-29T06:48:53.173Z,9.26
2016-12-29T06:49:53.108Z,9.25
2016-12-29T06:50:53.188Z,9.28
2016-12-29T06:51:53.155Z,9.25
2016-12-29T06:52:53.195Z,9.26
2016-12-29T06:53:53.189Z,9.29
2016-12-29T06:54:53.254Z,9.28
2016-12-29T06:55:53.245Z,9.29
2016-12-29T06:56:53.126Z,9.31
2016-12-29T06:57:53.129Z,9.26
2016-12-29T06:58:53.145Z,9.22
2016-12-29T06:59:53.161Z,9.28
2016-12-29T07:00:53.384Z,9.29
2016-12-29T07:01:53.189Z,9.29
2016-12-29T07:02:53.204Z,9.29
2016-12-29T07:03:53.336Z,9.31
2016-12-29T07:04:53.321Z,9.29
2016-12-29T07:05:53.414Z,9.25
2016-12-29T07:06:53.291Z,9.29
2016-12-29T07:07:53.448Z,9.29
2016-12-29T07:08:53.294Z,9.25
2016-12-29T07:09:53.314Z,9.28
2016-12-29T07:10:53.323Z,9.29
2016-12-29T07:11:53.337Z,9.34
2016-12-29T07:12:53.375Z,9.31
2016-12-29T07:13:53.366Z,9.28
2016-12-29T07:14:53.384Z,9.34
2016-12-29T07:15:53.398Z,9.32
2016-12-29T07:16:53.414Z,9.25
2016-12-29T07:17:53.434Z,9.28
2016-12-29T07:18:53.443Z,9.29
2016-12-29T07:19:53.467Z,9.31
2016-12-29T07:20:53.863Z,9.29
2016-12-29T07:21:53.485Z,9.25
2016-12-29T07:22:53.503Z,9.28
2016-12-29T07:23:53.518Z,9.26
2016-12-29T07:24:53.646Z,9.26
2016-12-29T07:25:53.548Z,9.23
2016-12-29T07:26:53.556Z,9.28
2016-12-29T07:27:53.575Z,9.28
2016-12-29T07:28:53.593Z,9.28
2016-12-29T07:29:53.612Z,9.23
2016-12-29T07:30:53.627Z,9.28
2016-12-29T07:31:53.633Z,9.29
2016-12-29T07:32:53.645Z,9.26
2016-12-29T07:33:54.161Z,9.26
2016-12-29T07:34:53.712Z,9.25
2016-12-29T07:35:53.696Z,9.28
2016-12-29T07:36:53.713Z,9.23
2016-12-29T07:37:53.912Z,9.26
2016-12-29T07:38:53.765Z,9.22
2016-12-29T07:39:53.757Z,9.29
2016-12-29T07:40:53.764Z,9.23
2016-12-29T07:41:53.779Z,9.23
2016-12-29T07:42:53.804Z,9.28
2016-12-29T07:43:53.809Z,9.25
2016-12-29T07:44:53.822Z,9.29
2016-12-29T07:45:53.848Z,9.18
2016-12-29T07:46:53.858Z,9.23
2016-12-29T07:47:53.868Z,9.26
2016-12-29T07:48:53.887Z,9.18
2016-12-29T07:49:53.897Z,9.23
2016-12-29T07:50:53.912Z,9.23
2016-12-29T07:51:53.934Z,9.19
2016-12-29T07:52:53.950Z,9.21
2016-12-29T07:53:53.960Z,9.19
2016-12-29T07:54:53.977Z,9.25
2016-12-29T07:55:54.018Z,9.26
2016-12-29T07:56:54.105Z,9.23
2016-12-29T07:57:54.203Z,9.28
2016-12-29T07:58:54.048Z,9.23
2016-12-29T07:59:54.049Z,9.31
2016-12-29T08:00:54.060Z,9.29
2016-12-29T08:01:54.080Z,9.28
2016-12-29T08:02:54.093Z,9.31
2016-12-29T08:03:54.106Z,9.29
2016-12-29T08:04:54.123Z,9.29
2016-12-29T08:05:54.139Z,9.29
2016-12-29T08:06:54.154Z,9.29
2016-12-29T08:07:54.165Z,9.32
2016-12-29T08:08:54.184Z,9.22
2016-12-29T08:09:54.198Z,9.34
2016-12-29T08:10:54.211Z,9.31
2016-12-29T08:11:54.225Z,9.39
2016-12-29T08:12:54.236Z,9.39
2016-12-29T08:13:54.256Z,9.41
2016-12-29T08:14:54.385Z,9.29
2016-12-29T08:15:54.283Z,9.39
2016-12-29T08:16:54.304Z,9.32
2016-12-29T08:17:54.323Z,9.36
2016-12-29T08:18:54.330Z,9.4
2016-12-29T08:19:54.344Z,9.32
2016-12-29T08:20:54.366Z,9.36
2016-12-29T08:21:54.378Z,9.4
2016-12-29T08:22:54.388Z,9.32
2016-12-29T08:23:54.404Z,9.32
2016-12-29T08:24:54.418Z,9.34
2016-12-29T08:25:54.435Z,9.34
2016-12-29T08:26:54.448Z,9.32
2016-12-29T08:27:54.469Z,9.4
2016-12-29T08:28:54.479Z,9.31
2016-12-29T08:29:54.492Z,9.36
2016-12-29T08:30:54.508Z,9.32
2016-12-29T08:31:54.518Z,9.43
2016-12-29T08:32:54.534Z,9.36
2016-12-29T08:33:54.550Z,9.39
2016-12-29T08:34:54.565Z,9.4
2016-12-29T08:35:54.592Z,9.41
2016-12-29T08:36:54.596Z,9.41
2016-12-29T08:37:54.611Z,9.39
2016-12-29T08:38:54.625Z,9.41
2016-12-29T08:39:54.640Z,9.43
2016-12-29T08:40:54.656Z,9.41
2016-12-29T08:41:54.678Z,9.44
2016-12-29T08:42:54.682Z,9.4
2016-12-29T08:43:54.700Z,9.37
2016-12-29T08:44:54.715Z,9.37
2016-12-29T08:45:54.731Z,9.46
2016-12-29T08:46:54.745Z,9.47
2016-12-29T08:47:54.766Z,9.48
2016-12-29T08:48:54.767Z,9.48
2016-12-29T08:49:55.184Z,9.43
2016-12-29T08:50:54.805Z,9.41
2016-12-29T08:51:54.938Z,9.46
2016-12-29T08:52:54.948Z,9.44
2016-12-29T08:53:54.939Z,9.46
2016-12-29T08:54:55.097Z,9.47
2016-12-29T08:55:55.111Z,9.55
2016-12-29T08:56:54.984Z,9.43
2016-12-29T08:57:55.093Z,9.51
2016-12-29T08:58:55.010Z,9.48
2016-12-29T08:59:55.177Z,9.48
2016-12-29T09:00:55.087Z,9.48
2016-12-29T09:01:55.083Z,9.47
2016-12-29T09:02:55.232Z,9.61
2016-12-29T09:03:55.104Z,9.59
2016-12-29T09:04:55.115Z,9.54
2016-12-29T09:05:55.123Z,9.61
2016-12-29T09:06:55.257Z,9.51
2016-12-29T09:07:55.058Z,9.59
2016-12-29T09:08:55.075Z,9.56
2016-12-29T09:09:55.090Z,9.59
2016-12-29T09:10:55.104Z,9.58
2016-12-29T09:11:55.165Z,9.56
2016-12-29T09:12:55.132Z,9.56
2016-12-29T09:13:55.147Z,9.54
2016-12-29T09:14:55.164Z,9.55
2016-12-29T09:15:55.177Z,9.54
2016-12-29T09:16:55.195Z,9.56
2016-12-29T09:17:55.208Z,9.61
2016-12-29T09:18:55.224Z,9.68
2016-12-29T09:19:55.235Z,9.73
2016-12-29T09:20:55.266Z,9.61
2016-12-29T09:21:55.271Z,9.72
2016-12-29T09:22:55.291Z,9.62
2016-12-29T09:23:55.296Z,9.65
2016-12-29T09:24:55.316Z,9.65
2016-12-29T09:25:55.328Z,9.68
2016-12-29T09:26:55.344Z,9.64
2016-12-29T09:27:55.353Z,9.65
2016-12-29T09:28:55.381Z,9.66
2016-12-29T09:29:55.386Z,9.64
2016-12-29T09:30:55.404Z,9.72
2016-12-29T09:31:55.416Z,9.66
2016-12-29T09:32:55.433Z,9.66
2016-12-29T09:33:55.452Z,9.65
2016-12-29T09:34:55.469Z,9.64
2016-12-29T09:35:55.478Z,9.68
2016-12-29T09:36:55.493Z,9.74
2016-12-29T09:37:55.512Z,9.74
2016-12-29T09:38:55.533Z,9.68
2016-12-29T09:39:55.533Z,9.79
2016-12-29T09:40:55.558Z,9.73
2016-12-29T09:41:55.570Z,9.73
2016-12-29T09:42:55.585Z,9.76
2016-12-29T09:43:56.082Z,9.82
2016-12-29T09:44:55.723Z,9.72
2016-12-29T09:45:55.740Z,9.8
2016-12-29T09:46:55.726Z,9.76
2016-12-29T09:47:55.724Z,9.77
2016-12-29T09:48:55.736Z,9.76
2016-12-29T09:49:55.785Z,9.79
2016-12-29T09:50:55.811Z,9.74
2016-12-29T09:51:55.809Z,9.79
2016-12-29T09:52:55.818Z,9.82
2016-12-29T09:53:55.827Z,9.82
2016-12-29T09:54:55.768Z,9.79
2016-12-29T09:55:55.774Z,9.83
2016-12-29T09:56:55.829Z,9.76
2016-12-29T09:57:55.806Z,9.8
2016-12-29T09:58:55.826Z,9.84
2016-12-29T09:59:55.838Z,9.83
2016-12-29T10:00:55.854Z,9.82
2016-12-29T10:01:55.873Z,9.79
2016-12-29T10:02:55.883Z,9.92
2016-12-29T10:03:55.909Z,9.92
2016-12-29T10:04:55.915Z,9.83
2016-12-29T10:05:55.926Z,9.92
2016-12-29T10:06:55.949Z,9.86
2016-12-29T10:07:56.166Z,9.89
2016-12-29T10:08:56.071Z,9.91
2016-12-29T10:09:56.140Z,9.95
2016-12-29T10:10:56.115Z,9.98
2016-12-29T10:11:56.096Z,9.94
2016-12-29T10:12:56.137Z,9.95
2016-12-29T10:13:56.050Z,9.95
2016-12-29T10:14:56.065Z,9.97
2016-12-29T10:15:56.081Z,9.95
2016-12-29T10:16:56.099Z,9.91
2016-12-29T10:17:56.112Z,9.94
2016-12-29T10:18:56.134Z,10.05
2016-12-29T10:19:56.140Z,10.04
2016-12-29T10:20:56.157Z,10.16
2016-12-29T10:21:56.288Z,10.13
2016-12-29T10:22:56.186Z,10.07
2016-12-29T10:23:56.260Z,10.07
2016-12-29T10:24:56.217Z,10.1
2016-12-29T10:25:56.233Z,10.2
2016-12-29T10:26:56.246Z,10.09
2016-12-29T10:27:56.261Z,10.1
2016-12-29T10:28:56.398Z,10.17
2016-12-29T10:29:56.404Z,10.1
2016-12-29T10:30:56.513Z,10.13
2016-12-29T10:31:56.327Z,10.13
2016-12-29T10:32:56.338Z,10.15
2016-12-29T10:33:56.358Z,10.25
2016-12-29T10:34:56.371Z,10.13
2016-12-29T10:35:56.389Z,10.16
2016-12-29T10:36:56.406Z,10.16
2016-12-29T10:37:56.561Z,10.12
2016-12-29T10:38:56.433Z,10.15
2016-12-29T10:39:56.443Z,10.05
2016-12-29T10:40:56.460Z,10.09
2016-12-29T10:41:56.477Z,10.17
2016-12-29T10:42:56.492Z,10.23
2016-12-29T10:43:56.541Z,10.2
2016-12-29T10:44:56.640Z,10.16
2016-12-29T10:45:56.540Z,10.16
2016-12-29T10:46:56.557Z,10.28
2016-12-29T10:47:56.570Z,10.28
2016-12-29T10:48:56.601Z,10.28
2016-12-29T10:49:56.602Z,10.23
2016-12-29T10:50:56.619Z,10.23
2016-12-29T10:51:56.655Z,10.26
2016-12-29T10:52:56.725Z,10.3
2016-12-29T10:53:56.722Z,10.28
2016-12-29T10:54:56.729Z,10.3
2016-12-29T10:55:56.740Z,10.23
2016-12-29T10:56:56.747Z,10.23
2016-12-29T10:57:56.757Z,10.25
2016-12-29T10:58:56.767Z,10.23
2016-12-29T10:59:56.764Z,10.28
2016-12-29T11:00:56.773Z,10.28
2016-12-29T11:01:56.788Z,10.22
2016-12-29T11:02:56.801Z,10.31
2016-12-29T11:03:56.917Z,10.28
2016-12-29T11:04:56.915Z,10.3
2016-12-29T11:05:56.850Z,10.33
2016-12-29T11:06:56.864Z,10.33
2016-12-29T11:07:56.884Z,10.3
2016-12-29T11:08:56.894Z,10.34
2016-12-29T11:09:56.909Z,10.28
2016-12-29T11:10:56.927Z,10.26
2016-12-29T11:11:57.058Z,10.3
2016-12-29T11:12:56.963Z,10.31
2016-12-29T11:13:56.974Z,10.34
2016-12-29T11:14:56.988Z,10.34
2016-12-29T11:15:57.013Z,10.4
2016-12-29T11:16:57.023Z,10.41
2016-12-29T11:17:57.059Z,10.31
2016-12-29T11:18:57.052Z,10.31
2016-12-29T11:19:57.065Z,10.25
2016-12-29T11:20:57.082Z,10.28
2016-12-29T11:21:57.096Z,10.35
2016-12-29T11:22:57.114Z,10.33
2016-12-29T11:23:57.136Z,10.37
2016-12-29T11:24:57.145Z,10.35
2016-12-29T11:25:57.163Z,10.4
2016-12-29T11:26:57.184Z,10.41
2016-12-29T11:27:57.194Z,10.4
2016-12-29T11:28:57.213Z,10.41
2016-12-29T11:29:57.232Z,10.41
2016-12-29T11:30:57.239Z,10.4
2016-12-29T11:31:57.258Z,10.42
2016-12-29T11:32:57.272Z,10.44
2016-12-29T11:33:57.288Z,10.38
2016-12-29T11:34:57.301Z,10.44
2016-12-29T11:35:57.322Z,10.41
2016-12-29T11:36:57.331Z,10.46
2016-12-29T11:37:57.349Z,10.44
2016-12-29T11:38:57.365Z,10.48
2016-12-29T11:39:57.392Z,10.51
2016-12-29T11:40:57.398Z,10.49
2016-12-29T11:41:57.427Z,10.53
2016-12-29T11:42:57.427Z,10.57
2016-12-29T11:43:57.445Z,10.54
2016-12-29T11:44:57.463Z,10.53
2016-12-29T11:45:57.472Z,10.54
2016-12-29T11:46:57.491Z,10.56
2016-12-29T11:47:57.508Z,10.53
2016-12-29T11:48:57.529Z,10.54
2016-12-29T11:49:57.538Z,10.57
2016-12-29T11:50:57.566Z,10.6
2016-12-29T11:51:57.571Z,10.61
2016-12-29T11:52:57.583Z,10.59
2016-12-29T11:53:57.602Z,10.57
2016-12-29T11:54:57.624Z,10.57
2016-12-29T11:55:57.684Z,10.51
2016-12-29T11:56:57.644Z,10.6
2016-12-29T11:57:57.666Z,10.67
2016-12-29T11:58:57.678Z,10.56
2016-12-29T11:59:57.707Z,10.54
2016-12-29T12:00:57.708Z,10.61
2016-12-29T12:01:57.739Z,10.59
2016-12-29T12:02:57.737Z,10.64
2016-12-29T12:03:57.761Z,10.67
2016-12-29T12:04:57.775Z,10.64
2016-12-29T12:05:57.807Z,10.67
2016-12-29T12:06:57.806Z,10.68
2016-12-29T12:07:57.821Z,10.69
2016-12-29T12:08:57.843Z,10.57
2016-12-29T12:09:57.864Z,10.69
2016-12-29T12:10:57.893Z,10.68
2016-12-29T12:11:57.883Z,10.6
2016-12-29T12:12:57.907Z,10.64
2016-12-29T12:13:57.913Z,10.68
2016-12-29T12:14:57.933Z,10.67
2016-12-29T12:15:57.942Z,10.57
2016-12-29T12:16:57.958Z,10.64
2016-12-29T12:17:58.422Z,10.61
2016-12-29T12:18:57.997Z,10.63
2016-12-29T12:19:58.013Z,10.6
2016-12-29T12:20:58.029Z,10.59
2016-12-29T12:21:58.053Z,10.61
2016-12-29T12:22:58.065Z,10.64
2016-12-29T12:23:58.075Z,10.63
2016-12-29T12:24:58.090Z,10.61
2016-12-29T12:25:58.110Z,10.64
2016-12-29T12:26:58.118Z,10.64
2016-12-29T12:27:58.144Z,10.64
2016-12-29T12:28:58.152Z,10.69
2016-12-29T12:29:58.171Z,10.64
2016-12-29T12:30:58.177Z,10.68
2016-12-29T12:31:58.201Z,10.59
2016-12-29T12:32:58.213Z,10.68
2016-12-29T12:33:58.231Z,10.68
2016-12-29T12:34:58.249Z,10.64
2016-12-29T12:35:58.275Z,10.69
2016-12-29T12:36:58.276Z,10.67
2016-12-29T12:37:58.303Z,10.74
2016-12-29T12:38:58.316Z,10.68
2016-12-29T12:39:58.332Z,10.64
2016-12-29T12:40:58.342Z,10.76
2016-12-29T12:41:58.367Z,10.67
2016-12-29T12:42:58.371Z,10.67
2016-12-29T12:43:58.398Z,10.71
2016-12-29T12:44:58.412Z,10.74
2016-12-29T12:45:58.422Z,10.74
2016-12-29T12:46:58.435Z,10.74
2016-12-29T12:47:58.456Z,10.72
2016-12-29T12:48:58.490Z,10.78
2016-12-29T12:49:58.488Z,10.78
2016-12-29T12:50:58.498Z,10.79
2016-12-29T12:51:58.520Z,10.72
2016-12-29T12:52:58.533Z,10.72
2016-12-29T12:53:58.549Z,10.75
2016-12-29T12:54:58.567Z,10.75
2016-12-29T12:55:58.578Z,10.75
2016-12-29T12:56:58.619Z,10.76
2016-12-29T12:57:59.001Z,10.74
2016-12-29T12:58:58.623Z,10.78
2016-12-29T12:59:58.657Z,10.75
2016-12-29T13:00:58.658Z,10.78
2016-12-29T13:01:58.688Z,10.74
2016-12-29T13:02:58.686Z,10.78
2016-12-29T13:03:58.722Z,10.76
2016-12-29T13:04:58.718Z,10.75
2016-12-29T13:05:58.743Z,10.78
2016-12-29T13:06:58.750Z,10.81
2016-12-29T13:07:59.178Z,10.79
2016-12-29T13:08:58.788Z,10.76
2016-12-29T13:09:58.808Z,10.75
2016-12-29T13:10:58.814Z,10.79
2016-12-29T13:11:58.827Z,10.72
2016-12-29T13:12:58.847Z,10.81
2016-12-29T13:13:58.866Z,10.69